Time;durP1;ratioP1;P1;durP2;ratioP2;P2;SDS_P1;SDS_P2;PMS_P1;PMS_P2;Temp;Humidity;BMP_temperature;BMP_pressure;BME280_temperature;BME280_humidity;BME280_pressure;Samples;Min_cycle;Max_cycle;Signal;HPM_P1;HPM_P2
2021/12/17 00:01:31;;;;;;;;;;;;;;;;;;;;;
2021/12/17 00:04:02;;;;;;;80.90;21.45;;;;;;;8.13;91.33;102573.94;5072616;28;20481;-75
2021/12/17 00:06:42;;;;;;;59.63;16.55;;;;;;;8.20;91.21;102572.41;5072829;28;20035;-76
2021/12/17 00:09:07;;;;;;;64.93;16.88;;;;;;;8.16;91.47;102562.91;5072363;28;20434;-77
2021/12/17 00:11:33;;;;;;;69.03;17.73;;;;;;;8.26;91.20;102561.09;5072704;28;20024;-76
2021/12/17 00:13:58;;;;;;;84.27;18.10;;;;;;;8.26;91.14;102572.69;5088137;28;20035;-77
2021/12/17 00:16:28;;;;;;;73.82;20.70;;;;;;;8.20;91.16;102575.94;5072575;28;20420;-77
2021/12/17 00:19:10;;;;;;;59.33;17.92;;;;;;;8.32;90.68;102574.88;5072676;28;20040;-76
2021/12/17 00:48:55;;;;;;;48.33;15.80;;;;;;;8.27;90.73;102552.91;5076159;28;20093;-76
2021/12/17 00:54:40;;;;;;;53.88;15.35;;;;;;;8.15;90.56;102556.69;5053649;28;20148;-75
2021/12/17 00:57:16;;;;;;;58.08;15.45;;;;;;;8.25;90.70;102548.66;5080923;28;20135;-77
2021/12/17 00:59:45;;;;;;;50.08;13.65;;;;;;;8.16;90.32;102541.44;5094755;28;20068;-76
2021/12/17 01:02:16;;;;;;;50.30;15.27;;;;;;;8.12;90.54;102543.53;5091213;28;20028;-76
2021/12/17 01:04:45;;;;;;;51.58;14.60;;;;;;;8.10;90.65;102544.66;5059165;27;20061;-75
2021/12/17 01:07:13;;;;;;;50.63;16.27;;;;;;;8.11;90.59;102546.38;5096727;28;20031;-75
2021/12/17 01:09:39;;;;;;;43.50;13.93;;;;;;;8.16;91.00;102533.38;5076873;28;20083;-75
2021/12/17 01:12:06;;;;;;;50.50;15.77;;;;;;;8.21;89.99;102525.78;5080662;28;20028;-75
2021/12/17 01:14:32;;;;;;;48.72;15.23;;;;;;;8.18;90.12;102520.66;5076047;28;20039;-75
2021/12/17 01:16:59;;;;;;;50.53;14.13;;;;;;;8.18;90.50;102526.03;5076351;28;20037;-75
2021/12/17 01:35:30;;;;;;;37.60;12.80;;;;;;;8.48;89.25;102522.44;5075146;28;20081;-76
2021/12/17 01:43:12;;;;;;;37.88;12.35;;;;;;;8.44;89.79;102537.13;5074894;28;20052;-76
2021/12/17 01:45:40;;;;;;;33.15;11.32;;;;;;;8.47;89.30;102540.41;5074826;28;20036;-75
2021/12/17 01:48:11;;;;;;;36.65;11.93;;;;;;;8.50;89.12;102541.97;5074781;28;20032;-76
2021/12/17 02:01:28;;;;;;;50.00;14.23;;;;;;;8.92;87.12;102548.78;5074690;28;20071;-76
2021/12/17 02:03:56;;;;;;;38.95;12.20;;;;;;;8.83;87.77;102557.69;5074199;28;20036;-76
2021/12/17 02:06:23;;;;;;;41.30;13.25;;;;;;;8.91;86.88;102549.75;5074401;28;20127;-76
2021/12/17 02:08:50;;;;;;;33.47;12.95;;;;;;;8.94;86.85;102548.63;5089618;28;20040;-76
2021/12/17 02:32:45;;;;;;;43.10;12.48;;;;;;;8.69;87.73;102544.66;5073890;28;20044;-75
2021/12/17 02:37:37;;;;;;;34.38;11.70;;;;;;;8.75;87.17;102540.56;5073697;28;20048;-75
2021/12/17 02:45:32;;;;;;;40.40;11.25;;;;;;;8.66;88.29;102542.25;5073702;28;20494;-75
2021/12/17 02:48:24;;;;;;;31.15;10.13;;;;;;;8.66;88.28;102548.47;5073967;28;20143;-75
2021/12/17 02:50:53;;;;;;;43.13;13.05;;;;;;;8.64;87.96;102549.59;5073204;28;20049;-76
2021/12/17 02:53:20;;;;;;;44.25;13.93;;;;;;;8.55;88.69;102548.63;5073480;28;20467;-75
2021/12/17 02:55:53;;;;;;;48.90;13.05;;;;;;;8.55;88.61;102548.63;5073350;28;20036;-74
2021/12/17 02:58:22;;;;;;;48.67;14.13;;;;;;;8.49;88.97;102551.00;5073218;28;20025;-75
2021/12/17 03:00:47;;;;;;;46.30;14.40;;;;;;;8.48;88.98;102549.31;5073431;28;20120;-74
2021/12/17 03:03:14;;;;;;;52.33;14.93;;;;;;;8.44;89.01;102548.72;5073469;28;20056;-74
2021/12/17 03:05:41;;;;;;;39.10;13.25;;;;;;;8.46;89.49;102543.22;5088939;28;20032;-75
2021/12/17 03:08:12;;;;;;;49.97;14.85;;;;;;;8.45;89.29;102542.38;5042506;28;20119;-74
2021/12/17 03:10:38;;;;;;;39.80;13.18;;;;;;;8.47;89.71;102547.59;5073256;28;20056;-75
2021/12/17 03:13:04;;;;;;;40.85;13.60;;;;;;;8.46;89.68;102543.22;5073337;28;20411;-74
2021/12/17 03:15:38;;;;;;;;;;;;;;;8.41;90.00;102542.81;5073340;28;20394;-79
2021/12/17 03:26:01;;;;;;;42.67;13.30;;;;;;;8.37;89.90;102530.63;5072023;28;20134;-75
2021/12/17 03:28:27;;;;;;;43.30;13.27;;;;;;;8.36;89.95;102532.47;5072939;28;20028;-75
2021/12/17 03:30:52;;;;;;;;;;;;;;;8.39;89.70;102528.66;5072354;28;20029;-75
2021/12/17 03:33:20;;;;;;;41.50;13.43;;;;;;;8.43;89.68;102524.69;5072806;28;19914;-75
2021/12/17 03:35:46;;;;;;;49.10;12.90;;;;;;;8.37;89.67;102528.78;5072976;28;20471;-74
2021/12/17 03:38:11;;;;;;;47.67;13.02;;;;;;;8.36;89.85;102529.78;5072647;28;20052;-75
2021/12/17 03:40:39;;;;;;;41.33;11.90;;;;;;;8.36;89.63;102529.78;5072933;28;20036;-75
2021/12/17 03:43:11;;;;;;;45.50;14.10;;;;;;;8.34;89.83;102535.28;5073106;28;20266;-75
2021/12/17 03:45:38;;;;;;;48.70;12.50;;;;;;;8.37;89.83;102538.69;5072878;28;20429;-75
2021/12/17 03:48:03;;;;;;;45.80;12.80;;;;;;;8.36;89.97;102537.84;5072789;28;20040;-74
2021/12/17 03:50:29;;;;;;;38.15;12.23;;;;;;;8.40;89.85;102541.97;5072939;28;20086;-74
2021/12/17 03:52:54;;;;;;;47.88;13.35;;;;;;;8.33;89.84;102538.97;5073047;28;20032;-74
2021/12/17 03:55:19;;;;;;;47.90;12.60;;;;;;;8.23;90.00;102543.44;5071852;28;20115;-74
2021/12/17 03:57:45;;;;;;;41.20;12.23;;;;;;;8.25;90.30;102536.06;5072281;28;20402;-74
2021/12/17 04:00:12;;;;;;;50.22;12.73;;;;;;;8.26;90.48;102534.25;5072365;28;20283;-75
2021/12/17 04:02:37;;;;;;;37.08;14.40;;;;;;;8.27;90.52;102533.25;5072722;28;20032;-75
2021/12/17 04:05:04;;;;;;;35.33;12.93;;;;;;;8.24;90.26;102531.69;5072880;28;20035;-76
2021/12/17 04:07:30;;;;;;;45.42;13.40;;;;;;;8.28;90.73;102538.50;5072552;28;20328;-76
2021/12/17 04:09:55;;;;;;;50.83;14.45;;;;;;;8.28;90.53;102533.13;5088416;28;20447;-75
2021/12/17 04:12:27;;;;;;;41.93;13.47;;;;;;;8.28;90.34;102535.81;5072619;28;20025;-75
2021/12/17 04:14:52;;;;;;;43.78;12.07;;;;;;;8.29;90.74;102536.66;5076407;28;20027;-75
2021/12/17 04:17:24;;;;;;;45.85;12.93;;;;;;;8.28;90.92;102535.81;5076492;28;20021;-75
2021/12/17 04:19:50;;;;;;;47.40;13.25;;;;;;;8.31;90.45;102538.22;5076345;28;20577;-75
2021/12/17 04:22:15;;;;;;;35.83;10.98;;;;;;;8.28;90.33;102538.50;5076376;28;20063;-75
2021/12/17 04:24:41;;;;;;;32.53;11.90;;;;;;;8.30;90.45;102533.84;5076032;28;20028;-75
2021/12/17 04:27:07;;;;;;;36.22;13.18;;;;;;;8.27;90.74;102531.41;5076262;28;20028;-76
2021/12/17 04:29:39;;;;;;;40.65;13.18;;;;;;;8.27;90.59;102535.94;5076230;28;20078;-77
2021/12/17 04:32:05;;;;;;;41.50;12.90;;;;;;;8.17;90.88;102535.94;5076060;28;20031;-74
2021/12/17 04:34:30;;;;;;;35.63;14.02;;;;;;;8.19;90.80;102546.53;5076107;28;20032;-75
2021/12/17 04:36:56;;;;;;;52.20;15.20;;;;;;;8.16;90.91;102536.06;5076037;28;20098;-76
2021/12/17 04:39:23;;;;;;;43.45;12.18;;;;;;;8.14;90.93;102543.41;5076300;28;20020;-75
2021/12/17 04:44:25;;;;;;;41.15;13.30;;;;;;;8.12;91.06;102548.06;5075994;28;20446;-74
2021/12/17 04:47:04;;;;;;;36.25;13.20;;;;;;;8.09;91.02;102542.97;5076116;28;20466;-75
2021/12/17 04:57:42;;;;;;;39.25;13.38;;;;;;;8.12;91.61;102553.44;5075473;28;20045;-75
2021/12/17 05:00:13;;;;;;;39.92;13.90;;;;;;;8.11;91.06;102552.59;5075562;28;20063;-75
2021/12/17 05:02:44;;;;;;;44.88;11.88;;;;;;;8.11;91.37;102549.03;5075630;28;20468;-76
2021/12/17 05:05:10;;;;;;;37.47;12.07;;;;;;;8.12;91.12;102550.75;5045771;27;20049;-76
2021/12/17 05:07:40;;;;;;;44.17;12.65;;;;;;;8.11;91.69;102543.69;5075251;28;20029;-75
2021/12/17 05:20:51;;;;;;;35.28;12.07;;;;;;;7.94;92.14;102540.66;5075426;28;20043;-76
2021/12/17 05:23:28;;;;;;;32.47;12.68;;;;;;;7.93;92.30;102538.97;5090619;28;20036;-77
2021/12/17 05:25:54;;;;;;;31.83;10.45;;;;;;;7.87;92.15;102534.16;5074939;28;20035;-77
2021/12/17 05:28:22;;;;;;;37.83;11.70;;;;;;;7.86;92.32;102542.34;5075538;28;20124;-77
2021/12/17 05:30:48;;;;;;;42.35;12.23;;;;;;;7.88;92.25;102545.75;5075144;28;20033;-78
2021/12/17 05:33:20;;;;;;;39.78;12.27;;;;;;;7.86;92.74;102545.88;5075553;28;20062;-77
2021/12/17 05:35:47;;;;;;;34.63;11.50;;;;;;;7.96;92.04;102544.06;5090785;28;20033;-77
2021/12/17 05:38:16;;;;;;;44.38;11.93;;;;;;;8.08;92.19;102546.63;5074416;28;20049;-77
2021/12/17 05:40:42;;;;;;;32.60;11.52;;;;;;;7.98;92.13;102557.34;5074851;28;20107;-77
2021/12/17 05:43:08;;;;;;;33.35;12.57;;;;;;;7.95;92.56;102569.22;5074754;28;20037;-76
2021/12/17 05:45:36;;;;;;;44.17;13.38;;;;;;;7.92;92.68;102558.72;5074815;28;20044;-76
2021/12/17 05:48:07;;;;;;;31.25;11.38;;;;;;;8.11;92.20;102552.59;5075029;28;20043;-77
2021/12/17 05:50:35;;;;;;;38.88;12.82;;;;;;;8.26;91.94;102559.25;5075156;28;20410;-76
2021/12/17 05:53:01;;;;;;;39.33;12.10;;;;;;;8.28;91.84;102551.06;5074724;28;20434;-76
2021/12/17 05:55:26;;;;;;;;;;;;;;;8.13;91.79;102550.63;5074642;28;20033;-76
2021/12/17 05:57:52;;;;;;;36.00;10.30;;;;;;;7.96;92.40;102544.06;5075451;28;19915;-76
2021/12/17 06:00:20;;;;;;;32.00;10.88;;;;;;;8.16;92.16;102552.19;5074398;28;20024;-77
2021/12/17 06:02:45;;;;;;;33.45;10.77;;;;;;;8.17;92.16;102546.69;5074167;28;20032;-76
2021/12/17 06:05:11;;;;;;;35.80;10.82;;;;;;;8.01;92.17;102547.19;5074425;28;20052;-77
2021/12/17 06:07:36;;;;;;;29.27;10.50;;;;;;;8.11;92.19;102546.38;5073892;28;20076;-77
2021/12/17 06:10:04;;;;;;;30.30;11.60;;;;;;;8.06;91.68;102548.63;5073874;28;20040;-77
2021/12/17 06:12:30;;;;;;;39.22;11.50;;;;;;;7.96;92.63;102538.69;5089549;28;20040;-77
2021/12/17 06:14:55;;;;;;;29.02;10.50;;;;;;;8.18;92.08;102539.47;5073740;28;20032;-78
2021/12/17 06:17:20;;;;;;;34.92;10.50;;;;;;;8.21;91.82;102531.16;5074167;28;20071;-78
2021/12/17 06:19:49;;;;;;;31.47;11.20;;;;;;;8.08;91.60;102539.44;5074183;28;20090;-77
2021/12/17 06:22:15;;;;;;;31.23;9.57;;;;;;;8.20;91.64;102534.81;5073935;28;20463;-79
2021/12/17 06:24:44;;;;;;;28.75;10.13;;;;;;;8.06;91.31;102537.91;5072971;28;20070;-77
2021/12/17 06:27:11;;;;;;;24.02;8.25;;;;;;;8.04;91.32;102538.03;5074049;28;20482;-78
2021/12/17 06:29:37;;;;;;;28.02;8.10;;;;;;;8.05;91.87;102541.56;5074287;28;20032;-78
2021/12/17 06:32:02;;;;;;;27.08;7.22;;;;;;;8.08;91.88;102533.22;5075359;28;20120;-77
2021/12/17 06:34:27;;;;;;;21.00;8.35;;;;;;;8.26;92.07;102531.56;5074234;28;20521;-77
2021/12/17 06:36:53;;;;;;;22.30;8.68;;;;;;;8.46;91.20;102536.00;5073338;28;20048;-77
2021/12/17 06:39:18;;;;;;;25.60;8.80;;;;;;;8.38;91.37;102533.19;5074348;28;20037;-78
2021/12/17 06:41:43;;;;;;;28.00;9.27;;;;;;;8.28;91.56;102538.50;5074061;28;20635;-77
2021/12/17 06:44:12;;;;;;;34.78;10.27;;;;;;;8.23;91.60;102532.72;5073904;28;20274;-77
2021/12/17 06:46:54;;;;;;;30.13;8.75;;;;;;;8.15;91.81;102535.22;5089614;28;20032;-78
2021/12/17 06:49:42;;;;;;;25.23;8.55;;;;;;;8.09;92.05;102526.84;5073474;28;20039;-77
2021/12/17 07:00:15;;;;;;;24.15;7.18;;;;;;;7.86;92.62;102526.25;5073056;28;20445;-77
2021/12/17 07:19:18;;;;;;;20.33;7.65;;;;;;;7.95;92.79;102536.16;5072825;28;20130;-76
2021/12/17 07:30:48;;;;;;;19.00;6.90;;;;;;;7.84;92.74;102533.56;5072562;28;20036;-77
2021/12/17 07:39:45;;;;;;;24.90;6.70;;;;;;;7.69;93.24;102543.81;5072592;28;20032;-77
2021/12/17 07:42:11;;;;;;;29.63;8.18;;;;;;;7.71;93.52;102543.66;5072707;28;20025;-77
2021/12/17 07:44:36;;;;;;;24.70;7.67;;;;;;;7.60;93.65;102541.94;5072433;28;20424;-77
2021/12/17 07:47:02;;;;;;;20.20;7.43;;;;;;;7.68;93.55;102547.50;5088283;28;20278;-77
2021/12/17 07:49:27;;;;;;;24.52;7.07;;;;;;;7.74;93.27;102554.13;5076430;28;20468;-77
2021/12/17 07:51:53;;;;;;;22.80;7.35;;;;;;;7.87;93.43;102560.16;5076707;28;20037;-77
2021/12/17 07:54:18;;;;;;;19.17;7.15;;;;;;;7.76;92.60;102561.06;5092223;28;20060;-78
2021/12/17 07:56:44;;;;;;;22.03;8.67;;;;;;;7.68;93.21;102560.91;5076328;28;20060;-76
2021/12/17 07:59:12;;;;;;;22.23;7.60;;;;;;;7.65;93.38;102562.03;5076990;28;20263;-77
2021/12/17 08:01:37;;;;;;;25.13;7.97;;;;;;;7.64;93.40;102559.47;5076393;28;20131;-77
2021/12/17 08:04:04;;;;;;;21.27;6.72;;;;;;;7.69;93.92;102573.34;5075948;28;20107;-77
2021/12/17 08:06:30;;;;;;;26.23;9.82;;;;;;;7.76;93.62;102582.53;5076118;28;20036;-77
2021/12/17 08:08:56;;;;;;;32.75;8.40;;;;;;;7.80;93.04;102588.50;5075922;28;20486;-77
2021/12/17 08:11:22;;;;;;;28.73;9.27;;;;;;;7.77;92.97;102592.28;5075753;28;20061;-77
2021/12/17 08:13:48;;;;;;;21.20;8.90;;;;;;;7.80;93.10;102591.19;5076194;28;20024;-77
2021/12/17 08:19:08;;;;;;;30.17;9.45;;;;;;;7.83;92.29;102601.66;5076514;28;20078;-77
2021/12/17 08:29:43;;;;;;;22.70;7.70;;;;;;;7.83;92.64;102613.25;5076119;28;20046;-77
2021/12/17 08:32:10;;;;;;;19.85;7.78;;;;;;;7.74;92.84;102603.28;5075824;28;20024;-77
2021/12/17 08:34:35;;;;;;;21.15;7.60;;;;;;;7.71;93.02;102610.75;5074296;28;20036;-78
2021/12/17 08:37:01;;;;;;;22.02;8.07;;;;;;;7.71;93.11;102606.22;5075501;28;20166;-77
2021/12/17 08:39:29;;;;;;;23.67;7.32;;;;;;;7.69;93.14;102604.69;5091449;28;20116;-76
2021/12/17 08:41:55;;;;;;;20.35;7.10;;;;;;;7.75;92.92;102607.69;5074516;28;20123;-78
2021/12/17 08:44:21;;;;;;;20.45;6.97;;;;;;;7.71;92.86;102608.91;5074591;28;20158;-77
2021/12/17 08:46:48;;;;;;;23.00;7.82;;;;;;;7.73;93.06;102611.47;5075860;28;20101;-76
2021/12/17 08:49:14;;;;;;;20.35;6.53;;;;;;;7.74;93.19;102614.03;5075176;28;20111;-77
2021/12/17 08:51:40;;;;;;;20.35;6.90;;;;;;;7.91;92.01;102609.88;5075667;28;20077;-77
2021/12/17 08:54:06;;;;;;;21.35;6.43;;;;;;;7.85;92.84;102605.06;5075125;28;20383;-76
2021/12/17 08:56:34;;;;;;;19.23;6.28;;;;;;;7.81;92.87;102603.63;5075197;28;20020;-77
2021/12/17 08:59:02;;;;;;;15.20;6.07;;;;;;;7.76;92.39;102605.84;5073655;28;20028;-77
2021/12/17 09:01:28;;;;;;;23.00;6.72;;;;;;;7.72;93.00;102599.88;5075034;28;20113;-77
2021/12/17 09:03:54;;;;;;;18.20;5.82;;;;;;;7.70;92.97;102607.25;5042585;27;20803;-76
2021/12/17 09:06:24;;;;;;;17.15;6.47;;;;;;;7.76;92.81;102608.53;5075144;27;20033;-77
2021/12/17 09:08:54;;;;;;;20.48;6.63;;;;;;;7.74;93.08;102619.38;5075829;28;20033;-76
2021/12/17 09:11:19;;;;;;;14.55;5.43;;;;;;;7.67;93.28;102615.56;5074575;28;20039;-77
2021/12/17 09:13:45;;;;;;;15.93;5.53;;;;;;;7.75;93.06;102620.25;5075542;28;20036;-76
2021/12/17 09:16:10;;;;;;;18.98;5.28;;;;;;;7.79;92.58;102621.69;5075046;28;20090;-77
2021/12/17 09:18:35;;;;;;;17.08;5.78;;;;;;;7.66;93.03;102627.28;5074653;28;20044;-76
2021/12/17 09:21:01;;;;;;;13.63;5.03;;;;;;;7.73;93.03;102633.78;5074974;28;20025;-76
2021/12/17 09:23:26;;;;;;;16.23;5.50;;;;;;;7.59;93.03;102639.50;5074048;28;20060;-77
2021/12/17 09:25:52;;;;;;;18.10;6.80;;;;;;;7.72;92.93;102626.72;5075276;28;20036;-77
2021/12/17 09:28:18;;;;;;;22.63;6.30;;;;;;;7.65;93.07;102618.38;5074587;28;20055;-78
2021/12/17 09:30:43;;;;;;;17.00;6.22;;;;;;;7.57;92.97;102622.69;5075359;28;20067;-77
2021/12/17 09:33:08;;;;;;;19.90;5.90;;;;;;;7.66;93.11;102621.91;5074655;28;20460;-77
2021/12/17 09:35:34;;;;;;;15.43;5.55;;;;;;;7.69;92.62;102636.91;5075441;28;20036;-76
2021/12/17 09:37:59;;;;;;;17.02;5.63;;;;;;;7.62;92.42;102631.19;5075315;28;20048;-77
2021/12/17 09:40:25;;;;;;;17.08;5.72;;;;;;;7.68;92.78;102625.31;5090615;28;20028;-77
2021/12/17 09:42:50;;;;;;;15.82;5.47;;;;;;;7.71;92.19;102634.91;5075026;28;20356;-77
2021/12/17 09:45:18;;;;;;;17.10;5.25;;;;;;;7.74;91.97;102634.63;5075424;28;20060;-78
2021/12/17 09:47:44;;;;;;;18.55;6.20;;;;;;;7.72;92.07;102633.91;5075003;28;20190;-77
2021/12/17 09:50:12;;;;;;;12.45;4.15;;;;;;;7.67;92.39;102631.66;5074461;28;20033;-78
2021/12/17 09:52:37;;;;;;;15.65;4.88;;;;;;;7.75;92.43;102625.59;5074872;28;20028;-77
2021/12/17 09:55:04;;;;;;;15.43;4.72;;;;;;;7.78;92.20;102636.94;5074866;28;20032;-76
2021/12/17 09:57:35;;;;;;;13.38;4.95;;;;;;;7.75;92.53;102631.81;5089590;28;20395;-76
2021/12/17 10:00:23;;;;;;;11.88;4.05;;;;;;;7.80;92.45;102639.50;5074059;28;20032;-76
2021/12/17 10:02:49;;;;;;;14.73;4.68;;;;;;;7.77;92.17;102635.22;5073987;28;20024;-76
2021/12/17 10:05:16;;;;;;;;;;;;;;;7.71;92.31;102638.44;5074470;28;20047;-76
2021/12/17 10:07:44;;;;;;;;;;;;;;;7.90;92.21;102640.38;5074448;28;19954;-77
2021/12/17 10:10:10;;;;;;;12.25;4.05;;;;;;;7.86;91.91;102642.50;5072899;28;19916;-76
2021/12/17 10:12:38;;;;;;;21.20;6.22;;;;;;;7.83;91.90;102645.44;5073842;28;20044;-76
2021/12/17 10:15:11;;;;;;;16.27;5.13;;;;;;;7.83;91.83;102645.44;5073850;28;20093;-77
2021/12/17 10:18:03;;;;;;;14.88;4.53;;;;;;;7.86;92.41;102644.34;5074015;28;20119;-76
2021/12/17 10:20:32;;;;;;;16.15;4.97;;;;;;;7.82;92.33;102638.38;5073694;28;20070;-76
2021/12/17 10:23:04;;;;;;;12.65;4.43;;;;;;;7.79;91.91;102635.09;5073371;28;20043;-76
2021/12/17 10:25:32;;;;;;;15.60;4.82;;;;;;;7.83;92.30;102633.88;5089381;28;20064;-76
2021/12/17 10:28:03;;;;;;;13.93;4.97;;;;;;;7.83;91.86;102645.44;5073441;28;20043;-76
2021/12/17 10:30:31;;;;;;;18.23;4.88;;;;;;;7.90;91.74;102630.50;5073299;28;20032;-76
2021/12/17 10:33:00;;;;;;;13.60;5.03;;;;;;;7.90;91.75;102632.31;5073511;28;20025;-76
2021/12/17 10:35:27;;;;;;;16.30;6.20;;;;;;;7.89;91.93;102631.47;5073557;28;20029;-76
2021/12/17 10:37:56;;;;;;;16.42;5.97;;;;;;;7.89;91.86;102636.84;5073347;28;20540;-76
2021/12/17 10:40:29;;;;;;;18.00;5.28;;;;;;;7.89;91.75;102638.69;5089252;28;20024;-76
2021/12/17 10:43:01;;;;;;;20.20;5.80;;;;;;;7.92;91.58;102633.91;5073314;28;20032;-77
2021/12/17 10:45:31;;;;;;;15.48;5.22;;;;;;;8.01;91.32;102626.88;5073604;28;20032;-76
2021/12/17 10:48:53;;;;;;;16.40;5.50;;;;;;;7.91;92.08;102625.97;5073090;28;20463;-76
2021/12/17 10:51:08;;;;;;;14.45;5.25;;;;;;;7.86;92.28;102628.22;5072385;28;20132;-76
2021/12/17 10:53:33;;;;;;;19.25;6.45;;;;;;;7.93;91.51;102629.38;5073061;28;20047;-76
2021/12/17 10:55:59;;;;;;;17.40;5.38;;;;;;;7.98;91.65;102632.53;5073322;28;20020;-76
2021/12/17 10:58:25;;;;;;;15.70;4.28;;;;;;;7.93;91.90;102640.13;5073357;28;20379;-79
2021/12/17 11:01:01;;;;;;;13.25;5.28;;;;;;;7.92;91.47;102635.72;5073229;28;20115;-76
2021/12/17 11:03:27;;;;;;;15.80;5.22;;;;;;;7.91;91.85;102642.94;5071913;28;20062;-77
2021/12/17 11:05:53;;;;;;;12.90;4.60;;;;;;;7.86;91.54;102638.97;5043550;27;20033;-76
2021/12/17 11:08:28;;;;;;;;;;;;;;;7.89;91.27;102641.34;5073824;28;20043;-78
2021/12/17 11:10:58;;;;;;;6.53;2.45;;;;;;;7.84;90.80;102641.78;5072665;28;19912;-78
2021/12/17 11:13:24;;;;;;;10.38;3.03;;;;;;;7.76;90.59;102641.59;5071578;28;20120;-77
2021/12/17 11:15:52;;;;;;;11.80;3.33;;;;;;;7.82;90.55;102635.69;5071598;28;20036;-77
2021/12/17 11:18:19;;;;;;;9.98;3.22;;;;;;;7.85;90.48;102637.25;5072819;28;20062;-77
2021/12/17 11:20:44;;;;;;;;;;;;;;;7.82;90.68;102637.53;5073191;28;20047;-77
2021/12/17 11:23:14;;;;;;;8.82;3.28;;;;;;;7.85;90.61;102632.75;5071701;28;19912;-77
2021/12/17 11:25:41;;;;;;;10.95;3.78;;;;;;;7.94;90.52;102641.81;5072979;28;20028;-77
2021/12/17 11:28:08;;;;;;;10.93;3.92;;;;;;;7.88;90.62;102637.00;5072846;28;20024;-77
2021/12/17 11:30:38;;;;;;;8.63;3.03;;;;;;;7.90;90.77;102640.38;5072405;28;20043;-76
2021/12/17 11:33:04;;;;;;;9.88;3.38;;;;;;;7.98;89.91;102636.06;5072906;28;20037;-77
2021/12/17 11:35:30;;;;;;;;;;;;;;;8.00;90.43;102634.09;5071790;28;20040;-77
2021/12/17 11:38:02;;;;;;;8.47;3.27;;;;;;;7.94;89.68;102642.66;5072277;28;19999;-76
2021/12/17 11:40:48;;;;;;;9.18;3.10;;;;;;;7.91;90.21;102629.50;5087787;28;20078;-77
2021/12/17 11:43:36;;;;;;;8.27;2.97;;;;;;;7.98;90.07;102637.88;5072539;28;20035;-77
2021/12/17 11:46:27;;;;;;;7.22;2.83;;;;;;;7.99;90.03;102627.03;5072319;28;20400;-76
2021/12/17 11:49:03;;;;;;;8.80;3.25;;;;;;;8.15;90.09;102631.88;5071773;28;20505;-77
2021/12/17 11:51:33;;;;;;;7.80;3.22;;;;;;;8.12;90.03;102639.34;5072905;28;20056;-77
2021/12/17 11:54:16;;;;;;;8.00;3.55;;;;;;;8.19;89.82;102637.84;5071779;28;20439;-77
2021/12/17 11:56:53;;;;;;;9.05;2.95;;;;;;;8.25;89.60;102629.22;5073206;28;20025;-78
2021/12/17 11:59:24;;;;;;;6.43;2.88;;;;;;;7.96;89.22;102629.97;5073375;28;20494;-78
2021/12/17 12:02:11;;;;;;;6.93;2.65;;;;;;;7.95;89.47;102633.63;5073499;28;20143;-78
2021/12/17 12:04:39;;;;;;;;;;;;;;;7.88;89.64;102632.47;5073918;28;20475;-78
2021/12/17 12:07:07;;;;;;;10.45;3.88;;;;;;;7.85;89.98;102635.44;5071963;28;19908;-78
2021/12/17 12:09:59;;;;;;;7.82;3.28;;;;;;;7.80;89.52;102631.44;5074378;28;20062;-77
2021/12/17 12:12:34;;;;;;;7.72;2.88;;;;;;;7.78;89.85;102626.19;5074746;28;20032;-78
2021/12/17 12:15:24;;;;;;;6.00;2.40;;;;;;;7.72;89.77;102629.41;5075468;28;20120;-78
2021/12/17 12:18:15;;;;;;;7.80;2.47;;;;;;;7.76;90.12;102632.69;5073786;28;20031;-77
2021/12/17 12:20:53;;;;;;;5.80;2.17;;;;;;;7.71;89.64;102622.34;5073430;28;20474;-77
2021/12/17 12:23:27;;;;;;;7.85;2.75;;;;;;;7.70;89.96;102625.19;5074087;28;20491;-79
2021/12/17 12:26:02;;;;;;;6.28;2.42;;;;;;;7.68;89.78;102619.94;5089083;28;20039;-77
2021/12/17 12:28:54;;;;;;;7.10;2.58;;;;;;;7.69;90.02;102621.66;5073101;28;20105;-78
2021/12/17 12:31:34;;;;;;;5.65;2.42;;;;;;;7.67;90.10;102620.94;5088897;28;20544;-77
2021/12/17 12:36:47;;;;;;;5.05;1.98;;;;;;;7.82;89.23;102621.44;5076836;28;20032;-78
2021/12/17 12:39:32;;;;;;;6.55;2.03;;;;;;;7.68;89.31;102619.94;5077658;28;20084;-77
2021/12/17 12:42:13;;;;;;;4.90;1.90;;;;;;;7.69;89.28;102621.66;5076474;28;20463;-77
2021/12/17 12:44:44;;;;;;;6.60;2.90;;;;;;;7.64;89.88;102622.03;5074967;28;20057;-79
2021/12/17 12:47:29;;;;;;;7.43;2.65;;;;;;;7.72;89.84;102624.03;5076088;28;20025;-78
2021/12/17 12:50:06;;;;;;;3.65;1.00;;;;;;;7.76;88.01;102616.56;5091309;28;20025;-78
2021/12/17 12:52:39;;;;;;;3.53;1.40;;;;;;;7.66;88.09;102616.53;5075422;28;20072;-77
2021/12/17 12:55:17;;;;;;;5.60;1.75;;;;;;;7.70;87.90;102619.81;5075468;28;20024;-76
2021/12/17 12:57:45;;;;;;;6.97;2.55;;;;;;;7.70;88.16;102620.66;5075225;28;20467;-77
2021/12/17 13:00:13;;;;;;;6.47;2.35;;;;;;;7.66;87.61;102628.13;5075116;28;20120;-76
2021/12/17 13:02:39;;;;;;;5.43;1.90;;;;;;;7.68;88.16;102630.69;5090947;28;20033;-77
2021/12/17 13:05:07;;;;;;;4.47;1.85;;;;;;;7.67;88.12;102628.97;5045441;28;20471;-76
2021/12/17 13:07:38;;;;;;;12.43;3.95;;;;;;;7.74;87.38;102627.44;5070524;28;20044;-77
2021/12/17 13:10:19;;;;;;;11.25;3.42;;;;;;;7.80;87.28;102620.69;5075379;28;20067;-76
2021/12/17 13:13:27;;;;;;;4.80;1.90;;;;;;;7.76;87.73;102625.47;5075245;28;20085;-76
2021/12/17 13:16:07;;;;;;;3.72;1.42;;;;;;;7.71;87.14;102619.66;5074800;28;20028;-77
2021/12/17 13:21:34;;;;;;;4.82;1.67;;;;;;;7.80;84.87;102593.88;5074900;28;20037;-76
2021/12/17 13:24:11;;;;;;;10.05;3.15;;;;;;;7.76;84.73;102601.31;5090338;28;20029;-76
2021/12/17 13:26:46;;;;;;;9.75;2.85;;;;;;;7.75;84.37;102602.31;5073459;28;20078;-79
2021/12/17 13:29:18;;;;;;;4.07;1.27;;;;;;;7.73;83.72;102595.38;5074111;28;20044;-77
2021/12/17 13:31:47;;;;;;;4.50;1.58;;;;;;;7.76;84.61;102593.28;5075185;28;20050;-78
2021/12/17 13:34:27;;;;;;;7.68;3.22;;;;;;;7.78;84.41;102585.09;5075462;28;20463;-77
2021/12/17 13:36:59;;;;;;;5.22;1.88;;;;;;;7.83;84.67;102590.91;5074571;28;20027;-78
2021/12/17 13:39:28;;;;;;;5.93;1.95;;;;;;;7.77;84.88;102589.59;5076107;28;20075;-78
2021/12/17 13:41:54;;;;;;;7.78;2.80;;;;;;;7.83;84.44;102588.22;5075536;28;20056;-77
2021/12/17 13:44:33;;;;;;;6.72;2.65;;;;;;;7.85;84.04;102584.44;5076248;28;20089;-78
2021/12/17 13:47:08;;;;;;;5.75;2.38;;;;;;;7.83;83.82;102591.78;5079339;28;20036;-79
2021/12/17 13:49:34;;;;;;;8.27;3.03;;;;;;;7.85;83.44;102594.31;5079754;28;20633;-78
2021/12/17 13:51:59;;;;;;;5.78;2.17;;;;;;;7.80;82.96;102583.97;5077037;28;20036;-76
2021/12/17 13:54:25;;;;;;;5.53;2.20;;;;;;;7.82;81.17;102589.22;5076357;28;20050;-77
2021/12/17 13:56:58;;;;;;;8.10;2.92;;;;;;;7.81;80.92;102588.38;5092169;28;20044;-78
2021/12/17 13:59:36;;;;;;;10.85;3.42;;;;;;;7.81;80.65;102580.31;5077824;28;20032;-79
2021/12/17 14:02:14;;;;;;;7.70;2.75;;;;;;;7.74;80.70;102578.28;5078407;28;20021;-79
2021/12/17 14:04:41;;;;;;;7.57;2.03;;;;;;;7.72;80.08;102582.94;5079021;28;20042;-79
2021/12/17 14:07:09;;;;;;;4.93;1.95;;;;;;;7.63;78.87;102581.91;5077878;28;20021;-79
2021/12/17 14:09:35;;;;;;;6.88;2.67;;;;;;;7.62;79.07;102583.75;5075147;28;20172;-76
2021/12/17 14:12:23;;;;;;;5.75;2.42;;;;;;;7.59;78.40;102583.16;5075578;28;20063;-77
2021/12/17 14:14:56;;;;;;;4.80;2.25;;;;;;;7.58;79.05;102570.72;5076178;28;20029;-77
2021/12/17 14:17:21;;;;;;;6.95;2.58;;;;;;;7.55;78.88;102579.03;5075935;28;20111;-78
2021/12/17 14:19:47;;;;;;;5.77;2.47;;;;;;;7.56;78.19;102572.69;5076129;28;20100;-78
2021/12/17 14:22:32;;;;;;;7.85;2.45;;;;;;;7.60;78.59;102583.03;5076136;28;20420;-78
2021/12/17 14:24:58;;;;;;;5.88;2.40;;;;;;;7.56;77.78;102578.06;5076045;28;20042;-78
2021/12/17 14:27:46;;;;;;;4.07;1.90;;;;;;;7.57;78.05;102574.38;5074754;28;20478;-78
2021/12/17 14:30:12;;;;;;;6.90;2.65;;;;;;;7.57;78.62;102583.28;5074156;28;20036;-78
2021/12/17 14:32:42;;;;;;;6.97;2.33;;;;;;;7.59;78.37;102580.47;5075892;28;20406;-80
2021/12/17 14:35:09;;;;;;;4.72;1.98;;;;;;;7.61;78.20;102578.50;5074481;28;20383;-79
2021/12/17 14:37:56;;;;;;;;;;;;;;;7.62;78.06;102578.38;5076468;28;20383;-78
2021/12/17 14:40:43;;;;;;;6.28;2.40;;;;;;;7.59;78.14;102575.97;5076356;28;19978;-78